Time;durP1;ratioP1;P1;durP2;ratioP2;P2;SDS_P1;SDS_P2;PMS_P1;PMS_P2;Temp;Humidity;BMP_temperature;BMP_pressure;BME280_temperature;BME280_humidity;BME280_pressure;Samples;Min_cycle;Max_cycle;Signal;HPM_P1;HPM_P2
2024/03/14 00:01:36;;;;;;;239.57;71.37;;;;;;;;;;5010493;28;20192;-44
2024/03/14 00:04:03;;;;;;;237.48;69.75;;;;;;;;;;5006815;28;20411;-44
2024/03/14 00:06:30;;;;;;;239.90;72.78;;;;;;;;;;5013054;28;20573;-45
2024/03/14 00:08:57;;;;;;;240.27;72.97;;;;;;;;;;5014042;28;20273;-45
2024/03/14 00:11:23;;;;;;;237.95;68.45;;;;;;;;;;5014071;28;20677;-44
2024/03/14 00:13:49;;;;;;;237.10;67.60;;;;;;;;;;5013843;28;20208;-45
2024/03/14 00:16:15;;;;;;;235.03;69.13;;;;;;;;;;5013739;28;20515;-45
2024/03/14 00:18:41;;;;;;;239.65;71.22;;;;;;;;;;5013643;28;20597;-45
2024/03/14 00:21:09;;;;;;;236.33;71.43;;;;;;;;;;5013921;28;20801;-45
2024/03/14 00:23:36;;;;;;;237.20;70.63;;;;;;;;;;5013957;28;20406;-45
2024/03/14 00:26:02;;;;;;;239.30;72.40;;;;;;;;;;5013504;28;20562;-44
2024/03/14 00:28:29;;;;;;;238.10;70.33;;;;;;;;;;5013765;28;20174;-45
2024/03/14 00:30:55;;;;;;;241.60;74.90;;;;;;;;;;5013720;28;20405;-44
2024/03/14 00:33:21;;;;;;;239.57;71.43;;;;;;;;;;5013398;28;20188;-45
2024/03/14 00:35:47;;;;;;;238.73;70.83;;;;;;;;;;5017017;28;20429;-44
2024/03/14 00:38:14;;;;;;;240.40;74.15;;;;;;;;;;5013327;28;20459;-45
2024/03/14 00:40:40;;;;;;;239.68;72.35;;;;;;;;;;5013551;28;20233;-44
2024/03/14 00:43:06;;;;;;;240.40;73.50;;;;;;;;;;5013507;28;20195;-44
2024/03/14 00:45:32;;;;;;;237.00;70.45;;;;;;;;;;5013210;28;20196;-44
2024/03/14 00:47:58;;;;;;;236.03;69.87;;;;;;;;;;5013087;28;20181;-45
2024/03/14 00:50:24;;;;;;;237.47;70.83;;;;;;;;;;5013202;28;20410;-45
2024/03/14 00:52:50;;;;;;;238.03;73.37;;;;;;;;;;5013202;28;20423;-44
2024/03/14 00:55:16;;;;;;;243.65;75.68;;;;;;;;;;5011980;28;20449;-44
2024/03/14 00:57:42;;;;;;;241.73;74.35;;;;;;;;;;5012788;28;20263;-44
2024/03/14 01:00:11;;;;;;;239.57;72.87;;;;;;;;;;5013123;28;20176;-45
2024/03/14 01:02:37;;;;;;;237.07;69.78;;;;;;;;;;5012825;28;20425;-44
2024/03/14 01:05:04;;;;;;;237.70;69.63;;;;;;;;;;5012765;28;20171;-45
2024/03/14 01:07:30;;;;;;;236.73;68.30;;;;;;;;;;5012948;28;20851;-45
2024/03/14 01:09:56;;;;;;;237.80;70.90;;;;;;;;;;5013365;28;20222;-44
2024/03/14 01:12:22;;;;;;;239.87;72.77;;;;;;;;;;5013315;28;20648;-44
2024/03/14 01:14:48;;;;;;;240.67;74.67;;;;;;;;;;5012616;28;20549;-45
2024/03/14 01:17:14;;;;;;;237.60;71.20;;;;;;;;;;5011474;28;20434;-45
2024/03/14 01:19:40;;;;;;;237.67;70.90;;;;;;;;;;5012671;28;20458;-45
2024/03/14 01:22:07;;;;;;;241.35;74.30;;;;;;;;;;5012694;28;20551;-44
2024/03/14 01:24:33;;;;;;;239.30;71.07;;;;;;;;;;5012735;28;20172;-44
2024/03/14 01:26:59;;;;;;;239.60;73.28;;;;;;;;;;5012299;28;20622;-44
2024/03/14 01:29:25;;;;;;;238.50;71.37;;;;;;;;;;5012642;28;20222;-45
2024/03/14 01:31:51;;;;;;;240.95;73.30;;;;;;;;;;5012474;28;20418;-44
2024/03/14 01:34:17;;;;;;;238.75;70.97;;;;;;;;;;5012379;28;20230;-44
2024/03/14 01:36:44;;;;;;;240.43;72.53;;;;;;;;;;5012164;28;20194;-44
2024/03/14 01:39:10;;;;;;;238.48;70.63;;;;;;;;;;5012260;28;20467;-45
2024/03/14 01:41:36;;;;;;;240.02;71.82;;;;;;;;;;5012241;28;20168;-45
2024/03/14 01:44:03;;;;;;;238.10;70.82;;;;;;;;;;5012228;28;20254;-45
2024/03/14 01:46:30;;;;;;;237.82;70.40;;;;;;;;;;5010863;28;20198;-45
2024/03/14 01:48:57;;;;;;;237.25;70.53;;;;;;;;;;5012201;28;20856;-44
2024/03/14 01:51:24;;;;;;;236.32;69.13;;;;;;;;;;5012222;28;20182;-45
2024/03/14 01:53:50;;;;;;;240.30;76.30;;;;;;;;;;5012185;28;20209;-44
2024/03/14 01:59:19;;;;;;;238.10;71.55;;;;;;;;;;5011338;28;20256;-45
2024/03/14 02:01:45;;;;;;;242.30;75.78;;;;;;;;;;5011510;28;20210;-45
2024/03/14 02:04:17;;;;;;;241.83;76.90;;;;;;;;;;5011124;28;20229;-44
2024/03/14 02:07:00;;;;;;;237.27;69.25;;;;;;;;;;5009478;28;20839;-45
2024/03/14 02:09:28;;;;;;;240.05;75.55;;;;;;;;;;5011538;28;20220;-44
2024/03/14 02:11:54;;;;;;;236.43;69.65;;;;;;;;;;5008318;28;20170;-44
2024/03/14 02:14:20;;;;;;;238.43;71.55;;;;;;;;;;5008010;28;20682;-45
2024/03/14 02:16:46;;;;;;;244.20;74.65;;;;;;;;;;5010729;28;20208;-45
2024/03/14 02:19:12;;;;;;;241.53;73.13;;;;;;;;;;5010598;28;20319;-44
2024/03/14 02:21:39;;;;;;;237.63;71.00;;;;;;;;;;5011800;28;20417;-44
2024/03/14 02:24:06;;;;;;;235.70;68.85;;;;;;;;;;5011777;28;20408;-44
2024/03/14 02:26:32;;;;;;;238.18;69.95;;;;;;;;;;5011601;28;20579;-44
2024/03/14 02:28:58;;;;;;;241.20;74.90;;;;;;;;;;5011212;28;20173;-44
2024/03/14 02:31:24;;;;;;;237.50;71.60;;;;;;;;;;5011664;28;20915;-45
2024/03/14 02:33:50;;;;;;;236.10;69.00;;;;;;;;;;5011648;28;20944;-44
2024/03/14 02:36:16;;;;;;;238.30;71.97;;;;;;;;;;5011104;28;20840;-44
2024/03/14 02:38:42;;;;;;;239.33;71.57;;;;;;;;;;5011354;28;20462;-45
2024/03/14 02:41:08;;;;;;;239.97;75.33;;;;;;;;;;5011642;28;20425;-45
2024/03/14 02:43:34;;;;;;;239.40;73.82;;;;;;;;;;5011810;28;20491;-45
2024/03/14 02:46:00;;;;;;;236.63;69.50;;;;;;;;;;5011181;28;20298;-45
2024/03/14 02:48:26;;;;;;;237.40;68.85;;;;;;;;;;5011294;28;20418;-44
2024/03/14 02:50:52;;;;;;;240.73;74.20;;;;;;;;;;5011124;28;20629;-44
2024/03/14 02:53:18;;;;;;;238.40;70.23;;;;;;;;;;5011298;28;20419;-44
2024/03/14 02:55:44;;;;;;;236.60;70.38;;;;;;;;;;5010200;28;20468;-44
2024/03/14 02:58:11;;;;;;;237.70;70.78;;;;;;;;;;5010987;28;20213;-45
2024/03/14 03:00:38;;;;;;;239.02;70.53;;;;;;;;;;5011008;28;20238;-45
2024/03/14 03:03:06;;;;;;;239.05;71.55;;;;;;;;;;5011077;28;20659;-45
2024/03/14 03:05:32;;;;;;;238.80;68.70;;;;;;;;;;5010658;28;20208;-44
2024/03/14 03:07:59;;;;;;;238.73;69.73;;;;;;;;;;5011169;28;20687;-44
2024/03/14 03:10:25;;;;;;;237.38;68.05;;;;;;;;;;5011078;28;20827;-44
2024/03/14 03:12:51;;;;;;;237.27;67.73;;;;;;;;;;5011110;28;20226;-44
2024/03/14 03:15:17;;;;;;;241.57;70.57;;;;;;;;;;5010557;28;20408;-44
2024/03/14 03:17:43;;;;;;;238.27;70.00;;;;;;;;;;5010813;28;20502;-44
2024/03/14 03:20:10;;;;;;;237.17;69.57;;;;;;;;;;5010769;28;20713;-45
2024/03/14 03:25:24;;;;;;;238.38;70.10;;;;;;;;;;5010942;28;20204;-45
2024/03/14 03:27:52;;;;;;;236.60;68.60;;;;;;;;;;5010998;28;20182;-44
2024/03/14 03:30:19;;;;;;;236.02;67.10;;;;;;;;;;5011356;28;20174;-45
2024/03/14 03:32:45;;;;;;;239.98;73.50;;;;;;;;;;5011295;28;20600;-45
2024/03/14 03:35:11;;;;;;;241.80;71.43;;;;;;;;;;5010749;28;20191;-44
2024/03/14 03:37:37;;;;;;;238.95;72.25;;;;;;;;;;5010695;28;20787;-44
2024/03/14 03:40:14;;;;;;;239.73;71.85;;;;;;;;;;5011753;28;20547;-44
2024/03/14 03:42:41;;;;;;;238.63;72.45;;;;;;;;;;5014880;28;20213;-45
2024/03/14 03:45:10;;;;;;;247.65;77.03;;;;;;;;;;5014174;28;20179;-44
2024/03/14 03:47:37;;;;;;;238.70;71.75;;;;;;;;;;5014603;28;20543;-44
2024/03/14 03:50:03;;;;;;;236.57;67.00;;;;;;;;;;5014687;28;20195;-44
2024/03/14 03:52:31;;;;;;;235.55;66.35;;;;;;;;;;5014871;28;20175;-44
2024/03/14 03:54:58;;;;;;;238.18;71.65;;;;;;;;;;5014962;28;20516;-44
2024/03/14 03:57:24;;;;;;;233.57;65.47;;;;;;;;;;5014020;28;20279;-44
2024/03/14 03:59:50;;;;;;;240.25;73.50;;;;;;;;;;5014509;28;20204;-44
2024/03/14 04:02:18;;;;;;;239.07;71.37;;;;;;;;;;5014283;28;20239;-45
2024/03/14 04:04:44;;;;;;;238.85;71.70;;;;;;;;;;5014428;28;20411;-45
2024/03/14 04:07:14;;;;;;;237.43;70.07;;;;;;;;;;5013801;28;20221;-44
2024/03/14 04:09:44;;;;;;;238.50;71.35;;;;;;;;;;5014328;28;20172;-45
2024/03/14 04:12:11;;;;;;;238.35;70.88;;;;;;;;;;5013965;28;20174;-44
2024/03/14 04:14:40;;;;;;;236.90;68.82;;;;;;;;;;5014377;28;20172;-44
2024/03/14 04:17:07;;;;;;;237.65;70.70;;;;;;;;;;5013941;28;20247;-44
2024/03/14 04:19:34;;;;;;;237.13;68.68;;;;;;;;;;5015037;28;20286;-45
2024/03/14 04:22:00;;;;;;;234.98;67.43;;;;;;;;;;5014082;28;20176;-45
2024/03/14 04:24:26;;;;;;;237.73;71.60;;;;;;;;;;5013986;28;20263;-45
2024/03/14 04:26:52;;;;;;;237.07;71.00;;;;;;;;;;5013393;28;20427;-45
2024/03/14 04:29:19;;;;;;;238.55;70.80;;;;;;;;;;5013873;28;20407;-45
2024/03/14 04:31:46;;;;;;;235.15;66.32;;;;;;;;;;5013866;28;20173;-45
2024/03/14 04:34:12;;;;;;;238.57;68.80;;;;;;;;;;5013817;28;20180;-45
2024/03/14 04:36:40;;;;;;;237.48;70.38;;;;;;;;;;5013389;28;20196;-45
2024/03/14 04:39:09;;;;;;;236.85;70.40;;;;;;;;;;5013609;28;20188;-45
2024/03/14 04:41:38;;;;;;;235.18;66.82;;;;;;;;;;5013856;28;20169;-45
2024/03/14 04:44:07;;;;;;;235.02;67.80;;;;;;;;;;5013671;28;20271;-45
2024/03/14 04:46:33;;;;;;;234.00;66.63;;;;;;;;;;5013238;28;20192;-45
2024/03/14 04:48:59;;;;;;;232.27;64.03;;;;;;;;;;5013517;28;20172;-45
2024/03/14 04:51:25;;;;;;;235.27;66.47;;;;;;;;;;5013069;28;20918;-45
2024/03/14 04:53:51;;;;;;;240.80;71.70;;;;;;;;;;5012615;28;20767;-45
2024/03/14 04:56:17;;;;;;;236.40;70.73;;;;;;;;;;5012727;28;20287;-45
2024/03/14 04:58:43;;;;;;;236.57;68.73;;;;;;;;;;5013322;28;20495;-45
2024/03/14 05:01:10;;;;;;;237.03;71.20;;;;;;;;;;5013211;28;20934;-45
2024/03/14 05:03:35;;;;;;;235.55;67.53;;;;;;;;;;5013305;28;20897;-45
2024/03/14 05:06:03;;;;;;;235.67;68.87;;;;;;;;;;5012983;28;20299;-45
2024/03/14 05:08:29;;;;;;;233.85;65.93;;;;;;;;;;5013460;28;20749;-45
2024/03/14 05:10:55;;;;;;;235.63;69.93;;;;;;;;;;5013152;28;20176;-44
2024/03/14 05:13:21;;;;;;;234.17;66.07;;;;;;;;;;5012902;28;20176;-45
2024/03/14 05:15:47;;;;;;;233.93;66.77;;;;;;;;;;5012729;28;20434;-45
2024/03/14 05:18:13;;;;;;;233.13;65.17;;;;;;;;;;5012753;28;20539;-45
2024/03/14 05:20:39;;;;;;;234.80;66.97;;;;;;;;;;5013020;28;20413;-45
2024/03/14 05:23:05;;;;;;;236.90;68.00;;;;;;;;;;5012493;28;20423;-46
2024/03/14 05:25:31;;;;;;;234.02;65.82;;;;;;;;;;5010559;28;20215;-45
2024/03/14 05:27:57;;;;;;;235.43;67.10;;;;;;;;;;5012628;28;20176;-45
2024/03/14 05:30:24;;;;;;;235.88;67.15;;;;;;;;;;5012555;28;20500;-45
2024/03/14 05:32:51;;;;;;;235.90;68.20;;;;;;;;;;5012436;28;20191;-45
2024/03/14 05:35:18;;;;;;;236.75;67.68;;;;;;;;;;5015128;28;20234;-45
2024/03/14 05:37:44;;;;;;;234.18;65.20;;;;;;;;;;5012887;28;20181;-45
2024/03/14 05:40:12;;;;;;;233.93;64.95;;;;;;;;;;5012394;28;20647;-44
2024/03/14 05:42:39;;;;;;;235.88;67.60;;;;;;;;;;5012481;28;20239;-44
2024/03/14 05:45:05;;;;;;;246.05;77.45;;;;;;;;;;5012018;28;20707;-44
2024/03/14 05:47:32;;;;;;;233.55;65.60;;;;;;;;;;5012167;28;20212;-44
2024/03/14 05:49:58;;;;;;;236.07;69.53;;;;;;;;;;5012284;28;20172;-45
2024/03/14 05:52:25;;;;;;;235.97;70.17;;;;;;;;;;5012437;28;20172;-44
2024/03/14 05:54:51;;;;;;;234.43;66.88;;;;;;;;;;5011965;28;20415;-45
2024/03/14 05:57:17;;;;;;;240.47;71.20;;;;;;;;;;5011293;28;20187;-44
2024/03/14 05:59:43;;;;;;;232.07;63.80;;;;;;;;;;5011522;28;21070;-45
2024/03/14 06:02:09;;;;;;;237.13;67.13;;;;;;;;;;5011018;28;20927;-44
2024/03/14 06:04:35;;;;;;;235.43;68.87;;;;;;;;;;5011038;28;20459;-45
2024/03/14 06:07:01;;;;;;;233.23;65.47;;;;;;;;;;5010775;28;20454;-44
2024/03/14 06:09:41;;;;;;;234.77;67.17;;;;;;;;;;5011225;28;20417;-44
2024/03/14 06:12:08;;;;;;;234.50;66.30;;;;;;;;;;5008280;28;20958;-45
2024/03/14 06:14:34;;;;;;;235.48;69.60;;;;;;;;;;5011314;28;20176;-45
2024/03/14 06:17:00;;;;;;;231.63;64.05;;;;;;;;;;5011206;28;20203;-45
2024/03/14 06:19:26;;;;;;;237.30;67.75;;;;;;;;;;5010927;28;20200;-45
2024/03/14 06:21:52;;;;;;;236.15;69.25;;;;;;;;;;5011391;28;20172;-45
2024/03/14 06:24:18;;;;;;;237.43;67.57;;;;;;;;;;5011217;28;20671;-45
2024/03/14 06:26:47;;;;;;;236.43;68.60;;;;;;;;;;5011376;28;20298;-44
2024/03/14 06:29:13;;;;;;;234.32;66.88;;;;;;;;;;5011397;28;20176;-44
2024/03/14 06:31:41;;;;;;;234.00;65.70;;;;;;;;;;5011788;28;20255;-44
2024/03/14 06:34:08;;;;;;;235.75;69.55;;;;;;;;;;5014562;28;20177;-44
2024/03/14 06:36:35;;;;;;;239.70;70.60;;;;;;;;;;5011174;28;20248;-44
2024/03/14 06:39:07;;;;;;;235.50;67.93;;;;;;;;;;5011245;28;20282;-44
2024/03/14 06:41:34;;;;;;;235.75;68.10;;;;;;;;;;5011597;28;20568;-45
2024/03/14 06:44:01;;;;;;;235.90;68.63;;;;;;;;;;5011040;28;20181;-44
2024/03/14 06:46:28;;;;;;;236.20;68.38;;;;;;;;;;5009880;28;20219;-44
2024/03/14 06:48:54;;;;;;;236.52;66.50;;;;;;;;;;5010179;28;20263;-44
2024/03/14 06:51:20;;;;;;;234.37;68.10;;;;;;;;;;5011052;28;20185;-44
2024/03/14 06:53:47;;;;;;;233.90;66.87;;;;;;;;;;5011094;28;20912;-45
2024/03/14 06:56:15;;;;;;;238.88;71.65;;;;;;;;;;5010545;28;21046;-45
2024/03/14 06:58:41;;;;;;;238.48;70.38;;;;;;;;;;5010410;28;20192;-45
2024/03/14 07:01:08;;;;;;;239.23;70.07;;;;;;;;;;5011143;28;20175;-44
2024/03/14 07:03:34;;;;;;;242.20;76.43;;;;;;;;;;5011181;28;20178;-45
2024/03/14 07:06:00;;;;;;;241.02;72.53;;;;;;;;;;5010510;28;20211;-45
2024/03/14 07:08:26;;;;;;;242.70;76.60;;;;;;;;;;5010237;28;20176;-45
2024/03/14 07:10:55;;;;;;;246.70;81.45;;;;;;;;;;5010794;28;20407;-44
2024/03/14 07:13:22;;;;;;;249.23;80.18;;;;;;;;;;5010389;28;20674;-44
2024/03/14 07:15:48;;;;;;;249.43;82.57;;;;;;;;;;5008650;28;20204;-45
2024/03/14 07:18:16;;;;;;;252.57;89.70;;;;;;;;;;5010665;28;20199;-44
2024/03/14 07:20:44;;;;;;;248.80;83.57;;;;;;;;;;5010789;28;20395;-45
2024/03/14 07:23:10;;;;;;;246.60;81.75;;;;;;;;;;5010829;28;20674;-45
2024/03/14 07:25:36;;;;;;;253.73;92.13;;;;;;;;;;5010610;28;20566;-44
2024/03/14 07:28:02;;;;;;;252.55;90.13;;;;;;;;;;5010738;28;20753;-44
2024/03/14 07:30:30;;;;;;;245.63;79.40;;;;;;;;;;5006296;28;20191;-45
2024/03/14 07:32:56;;;;;;;248.77;83.83;;;;;;;;;;5010641;28;20777;-45
2024/03/14 07:35:23;;;;;;;251.47;88.93;;;;;;;;;;5010047;28;20428;-45
2024/03/14 07:37:49;;;;;;;249.02;86.82;;;;;;;;;;5010520;28;20444;-45
2024/03/14 07:40:18;;;;;;;244.80;81.97;;;;;;;;;;5010538;28;20202;-45
2024/03/14 07:42:44;;;;;;;248.60;86.20;;;;;;;;;;5010490;28;20777;-45
2024/03/14 07:45:13;;;;;;;255.07;94.53;;;;;;;;;;5010132;28;20440;-45
2024/03/14 07:47:41;;;;;;;250.30;89.93;;;;;;;;;;5010692;28;20466;-45
2024/03/14 07:50:08;;;;;;;253.93;93.40;;;;;;;;;;5010646;28;20413;-45
2024/03/14 07:52:34;;;;;;;251.00;88.97;;;;;;;;;;5010537;28;20410;-45
2024/03/14 07:55:01;;;;;;;250.03;90.37;;;;;;;;;;5009952;28;20464;-45
2024/03/14 07:57:28;;;;;;;251.17;91.97;;;;;;;;;;5010268;28;20437;-45
2024/03/14 07:59:56;;;;;;;248.80;90.53;;;;;;;;;;5010437;28;20832;-45
2024/03/14 08:02:24;;;;;;;251.07;91.30;;;;;;;;;;5010420;28;20845;-45
2024/03/14 08:04:50;;;;;;;248.77;95.03;;;;;;;;;;5010405;28;20418;-45
2024/03/14 08:07:18;;;;;;;250.47;90.40;;;;;;;;;;5009856;28;20438;-45
2024/03/14 08:09:47;;;;;;;251.33;90.77;;;;;;;;;;5010241;28;20943;-45
2024/03/14 08:12:13;;;;;;;251.77;93.07;;;;;;;;;;5010697;28;20532;-45
2024/03/14 08:14:44;;;;;;;248.77;89.73;;;;;;;;;;5010361;28;20513;-45
2024/03/14 08:17:13;;;;;;;253.00;91.60;;;;;;;;;;5010065;28;20433;-45
2024/03/14 08:19:46;;;;;;;249.47;89.20;;;;;;;;;;5010227;28;20898;-45
2024/03/14 08:22:13;;;;;;;253.57;93.07;;;;;;;;;;5008017;28;20481;-44
2024/03/14 08:24:42;;;;;;;250.40;91.57;;;;;;;;;;5010100;28;20797;-45
2024/03/14 08:27:09;;;;;;;249.30;88.63;;;;;;;;;;5012101;28;20783;-45
2024/03/14 08:29:36;;;;;;;250.63;92.17;;;;;;;;;;5013592;28;20417;-44
2024/03/14 08:32:03;;;;;;;251.10;94.83;;;;;;;;;;5013964;28;20953;-45
2024/03/14 08:34:29;;;;;;;251.57;93.33;;;;;;;;;;5013890;28;20778;-45
2024/03/14 08:36:58;;;;;;;253.97;99.30;;;;;;;;;;5013615;28;20781;-45
2024/03/14 08:39:28;;;;;;;251.90;96.50;;;;;;;;;;5013827;28;20450;-45
2024/03/14 08:41:54;;;;;;;248.43;90.87;;;;;;;;;;5013798;28;20411;-45
2024/03/14 08:44:26;;;;;;;252.37;95.67;;;;;;;;;;5013607;28;20409;-45
2024/03/14 08:46:52;;;;;;;253.67;96.03;;;;;;;;;;5012684;28;20437;-45
2024/03/14 08:49:18;;;;;;;247.87;87.57;;;;;;;;;;5013135;28;20433;-45
2024/03/14 08:51:45;;;;;;;248.87;91.93;;;;;;;;;;5013526;28;20898;-45
2024/03/14 08:54:28;;;;;;;250.77;92.47;;;;;;;;;;5013355;28;20411;-45
2024/03/14 08:56:58;;;;;;;248.80;89.57;;;;;;;;;;5012931;28;20469;-45
2024/03/14 08:59:25;;;;;;;249.07;91.13;;;;;;;;;;5013533;28;21032;-45
2024/03/14 09:01:51;;;;;;;253.07;97.30;;;;;;;;;;5013210;28;20414;-45
2024/03/14 09:04:21;;;;;;;248.63;91.97;;;;;;;;;;5013217;28;20437;-45
2024/03/14 09:06:50;;;;;;;245.73;86.97;;;;;;;;;;5012552;28;20529;-45
2024/03/14 09:09:27;;;;;;;254.97;101.80;;;;;;;;;;5013098;28;20930;-45
2024/03/14 09:11:53;;;;;;;251.87;94.43;;;;;;;;;;5014411;28;20850;-45
2024/03/14 09:14:20;;;;;;;253.73;98.03;;;;;;;;;;5012608;28;20774;-45
2024/03/14 09:16:47;;;;;;;256.87;101.53;;;;;;;;;;5012414;28;20458;-45
2024/03/14 09:19:16;;;;;;;252.77;93.80;;;;;;;;;;5013079;28;20468;-45
2024/03/14 09:21:42;;;;;;;258.27;104.80;;;;;;;;;;5013047;28;20404;-45
2024/03/14 09:24:11;;;;;;;255.47;100.90;;;;;;;;;;5012987;28;20758;-45
2024/03/14 09:26:38;;;;;;;258.30;101.20;;;;;;;;;;5012260;28;20462;-45
2024/03/14 09:29:06;;;;;;;252.13;95.73;;;;;;;;;;5012763;28;20498;-45
2024/03/14 09:31:32;;;;;;;255.27;101.60;;;;;;;;;;5012640;28;20423;-45
2024/03/14 09:33:58;;;;;;;250.60;93.87;;;;;;;;;;5012526;28;20423;-45
2024/03/14 09:36:26;;;;;;;255.47;101.07;;;;;;;;;;5012175;28;20786;-45
2024/03/14 09:38:53;;;;;;;252.80;96.57;;;;;;;;;;5011489;28;20505;-45
2024/03/14 09:41:19;;;;;;;256.40;100.93;;;;;;;;;;5012346;28;20812;-45
2024/03/14 09:43:45;;;;;;;255.50;102.13;;;;;;;;;;5012663;28;20899;-45
2024/03/14 09:46:15;;;;;;;252.40;95.80;;;;;;;;;;5012394;28;20438;-45
2024/03/14 09:48:41;;;;;;;253.87;96.37;;;;;;;;;;5012441;28;20429;-45
2024/03/14 09:51:09;;;;;;;252.73;97.20;;;;;;;;;;5009486;28;20415;-45
2024/03/14 09:53:36;;;;;;;259.97;108.60;;;;;;;;;;5012227;28;20418;-45
2024/03/14 09:56:03;;;;;;;257.30;105.50;;;;;;;;;;5011813;28;20981;-45
2024/03/14 09:58:29;;;;;;;260.90;111.13;;;;;;;;;;5004213;28;20458;-45
2024/03/14 10:00:56;;;;;;;261.13;109.90;;;;;;;;;;5011076;28;20426;-45
2024/03/14 10:03:22;;;;;;;255.73;105.67;;;;;;;;;;5011302;28;20469;-45
2024/03/14 10:05:53;;;;;;;261.87;108.93;;;;;;;;;;5008995;28;20459;-45
2024/03/14 10:08:22;;;;;;;255.40;103.93;;;;;;;;;;5008904;28;20839;-45
2024/03/14 10:10:48;;;;;;;253.23;101.40;;;;;;;;;;5011980;28;20506;-45
2024/03/14 10:13:25;;;;;;;255.67;99.10;;;;;;;;;;5011840;28;20507;-45
2024/03/14 10:15:51;;;;;;;256.57;107.07;;;;;;;;;;5011758;28;20438;-45
2024/03/14 10:18:18;;;;;;;254.83;100.67;;;;;;;;;;5012451;28;20465;-46
2024/03/14 10:20:44;;;;;;;251.30;96.13;;;;;;;;;;5011613;28;20415;-46
2024/03/14 10:23:12;;;;;;;254.07;100.90;;;;;;;;;;5011525;28;20441;-46
2024/03/14 10:25:39;;;;;;;252.93;101.00;;;;;;;;;;5011319;28;20438;-46
2024/03/14 10:28:09;;;;;;;253.97;102.23;;;;;;;;;;5011663;28;20451;-46
2024/03/14 10:30:36;;;;;;;255.63;105.57;;;;;;;;;;5011738;28;20422;-46
2024/03/14 10:33:02;;;;;;;259.27;110.93;;;;;;;;;;5011314;28;20506;-46
2024/03/14 10:35:30;;;;;;;257.30;106.20;;;;;;;;;;5011073;28;20798;-46
2024/03/14 10:37:57;;;;;;;253.60;104.17;;;;;;;;;;5011662;28;20454;-46
2024/03/14 10:40:32;;;;;;;256.83;107.57;;;;;;;;;;5011126;28;20497;-46
2024/03/14 10:42:58;;;;;;;262.37;119.60;;;;;;;;;;5010635;28;20419;-46
2024/03/14 10:45:26;;;;;;;257.53;108.43;;;;;;;;;;5010858;28;20435;-47
2024/03/14 10:47:54;;;;;;;256.83;107.30;;;;;;;;;;5011189;28;20472;-45
2024/03/14 10:50:21;;;;;;;253.70;102.20;;;;;;;;;;5010952;28;20883;-47
2024/03/14 10:52:49;;;;;;;256.87;108.00;;;;;;;;;;5010630;28;20438;-46
2024/03/14 10:55:15;;;;;;;260.93;113.20;;;;;;;;;;5010993;28;20442;-46
2024/03/14 10:57:42;;;;;;;254.17;104.67;;;;;;;;;;5011188;28;20418;-46
2024/03/14 11:00:14;;;;;;;255.80;101.87;;;;;;;;;;5011134;28;20408;-46
2024/03/14 11:02:42;;;;;;;255.63;103.10;;;;;;;;;;5011047;28;20922;-46
2024/03/14 11:05:11;;;;;;;259.50;107.50;;;;;;;;;;5010592;28;20471;-46
2024/03/14 11:07:39;;;;;;;249.33;96.10;;;;;;;;;;5009702;28;20627;-46
2024/03/14 11:10:08;;;;;;;252.47;101.73;;;;;;;;;;5011008;28;20419;-46
2024/03/14 11:12:35;;;;;;;254.13;103.50;;;;;;;;;;5010929;28;20422;-45
2024/03/14 11:15:07;;;;;;;257.60;104.40;;;;;;;;;;5010642;28;20441;-45
2024/03/14 11:17:34;;;;;;;252.53;96.93;;;;;;;;;;5009643;28;20422;-46
2024/03/14 11:20:07;;;;;;;251.67;96.83;;;;;;;;;;5010903;28;20485;-46
2024/03/14 11:22:33;;;;;;;252.93;100.00;;;;;;;;;;5011193;28;20411;-45
2024/03/14 11:25:00;;;;;;;254.17;102.23;;;;;;;;;;5009909;28;20962;-46
2024/03/14 11:27:28;;;;;;;256.53;105.83;;;;;;;;;;5010345;28;20457;-46
2024/03/14 11:29:54;;;;;;;257.37;106.73;;;;;;;;;;5010873;28;20442;-46
2024/03/14 11:32:31;;;;;;;255.00;103.43;;;;;;;;;;5011138;28;20442;-46
2024/03/14 11:35:17;;;;;;;255.03;104.33;;;;;;;;;;5010653;28;20883;-46
2024/03/14 11:37:50;;;;;;;256.93;109.53;;;;;;;;;;5004316;28;20872;-46
2024/03/14 11:40:16;;;;;;;257.27;110.03;;;;;;;;;;5010861;28;20423;-46
2024/03/14 11:42:49;;;;;;;256.27;109.90;;;;;;;;;;5010871;28;20403;-46
2024/03/14 11:45:16;;;;;;;262.20;115.13;;;;;;;;;;5010577;28;20415;-46
2024/03/14 11:47:42;;;;;;;262.00;116.47;;;;;;;;;;5010703;28;20411;-46
2024/03/14 11:50:22;;;;;;;259.77;112.80;;;;;;;;;;5011224;28;20403;-45
2024/03/14 11:52:50;;;;;;;255.33;105.40;;;;;;;;;;5010982;28;20410;-45
2024/03/14 11:55:18;;;;;;;262.13;113.17;;;;;;;;;;5010300;28;20415;-45
2024/03/14 11:57:47;;;;;;;257.07;108.47;;;;;;;;;;5010813;28;20417;-45
2024/03/14 12:00:20;;;;;;;258.63;110.43;;;;;;;;;;5010581;28;20414;-45
2024/03/14 12:02:46;;;;;;;261.87;117.90;;;;;;;;;;5014314;28;20941;-45
2024/03/14 12:05:19;;;;;;;267.20;120.87;;;;;;;;;;5013726;28;20510;-45
2024/03/14 12:07:46;;;;;;;255.57;108.63;;;;;;;;;;5014526;28;20446;-45
2024/03/14 12:10:15;;;;;;;260.27;116.73;;;;;;;;;;5014634;28;20414;-45
2024/03/14 12:12:41;;;;;;;257.93;114.33;;;;;;;;;;5014175;28;20418;-45
2024/03/14 12:15:10;;;;;;;265.80;122.60;;;;;;;;;;5012116;28;20410;-45
2024/03/14 12:17:36;;;;;;;260.70;119.97;;;;;;;;;;5013823;28;20545;-46
2024/03/14 12:20:05;;;;;;;258.60;113.73;;;;;;;;;;5013761;28;20953;-45
2024/03/14 12:22:42;;;;;;;256.70;113.93;;;;;;;;;;5014091;28;20923;-46
2024/03/14 12:25:15;;;;;;;269.30;126.67;;;;;;;;;;5013527;28;20411;-45
2024/03/14 12:27:45;;;;;;;261.93;122.10;;;;;;;;;;5013899;28;20403;-45
2024/03/14 12:30:11;;;;;;;259.47;117.13;;;;;;;;;;5013832;28;20414;-45
2024/03/14 12:32:37;;;;;;;263.73;124.07;;;;;;;;;;5014160;28;20411;-45
2024/03/14 12:35:05;;;;;;;259.90;117.23;;;;;;;;;;5013473;28;20410;-45
2024/03/14 12:37:31;;;;;;;258.87;117.13;;;;;;;;;;5013695;28;20435;-45
2024/03/14 12:39:57;;;;;;;261.27;119.60;;;;;;;;;;5013518;28;20558;-45
2024/03/14 12:42:24;;;;;;;261.17;119.57;;;;;;;;;;5013439;28;20485;-45
2024/03/14 12:44:51;;;;;;;261.53;121.77;;;;;;;;;;5012352;28;21278;-45
2024/03/14 12:47:17;;;;;;;262.03;119.73;;;;;;;;;;5013068;28;20431;-46
2024/03/14 12:49:46;;;;;;;262.53;120.43;;;;;;;;;;5013629;28;20410;-45
2024/03/14 12:52:12;;;;;;;261.17;125.57;;;;;;;;;;5012649;28;20434;-46
2024/03/14 12:54:38;;;;;;;262.00;126.07;;;;;;;;;;5013477;28;20441;-45
2024/03/14 12:57:05;;;;;;;262.73;123.73;;;;;;;;;;5013458;28;20481;-45
2024/03/14 12:59:32;;;;;;;259.60;119.47;;;;;;;;;;5012686;28;20459;-46
2024/03/14 13:02:01;;;;;;;261.07;122.37;;;;;;;;;;5013633;28;20938;-45
2024/03/14 13:04:27;;;;;;;259.87;122.10;;;;;;;;;;5012807;28;20469;-45
2024/03/14 13:06:59;;;;;;;263.57;129.20;;;;;;;;;;5012537;28;20483;-45
2024/03/14 13:09:25;;;;;;;260.77;126.83;;;;;;;;;;5012815;28;20415;-45
2024/03/14 13:12:17;;;;;;;262.40;128.13;;;;;;;;;;5012777;28;20473;-45
2024/03/14 13:14:43;;;;;;;260.37;121.30;;;;;;;;;;5010453;28;20417;-45
2024/03/14 13:17:12;;;;;;;265.17;125.17;;;;;;;;;;5012495;28;20453;-46
2024/03/14 13:19:38;;;;;;;259.13;121.30;;;;;;;;;;5012988;28;20879;-45
2024/03/14 13:22:04;;;;;;;257.70;117.90;;;;;;;;;;5012724;28;20418;-45
2024/03/14 13:24:32;;;;;;;258.63;120.93;;;;;;;;;;5012995;28;20415;-45
2024/03/14 13:26:58;;;;;;;260.57;127.63;;;;;;;;;;5012662;28;20439;-45
2024/03/14 13:29:25;;;;;;;257.73;116.97;;;;;;;;;;5013017;28;20810;-46
2024/03/14 13:31:52;;;;;;;262.53;126.63;;;;;;;;;;5013080;28;20407;-46
2024/03/14 13:34:18;;;;;;;262.93;129.10;;;;;;;;;;5012772;28;20769;-46
2024/03/14 13:36:44;;;;;;;262.27;127.30;;;;;;;;;;5012324;28;20439;-46
2024/03/14 13:39:14;;;;;;;261.80;126.07;;;;;;;;;;5012372;28;20562;-45
2024/03/14 13:41:42;;;;;;;260.83;124.17;;;;;;;;;;5012850;28;20418;-45
2024/03/14 13:44:08;;;;;;;261.13;123.70;;;;;;;;;;5012584;28;20453;-46
2024/03/14 13:46:34;;;;;;;265.10;125.53;;;;;;;;;;5012186;28;20431;-45
2024/03/14 13:49:07;;;;;;;258.83;119.17;;;;;;;;;;5012297;28;20418;-46
2024/03/14 13:51:33;;;;;;;260.20;119.33;;;;;;;;;;5004880;28;20407;-45
2024/03/14 13:54:02;;;;;;;257.17;113.80;;;;;;;;;;5012372;28;20495;-46
2024/03/14 13:56:28;;;;;;;260.00;120.27;;;;;;;;;;5011722;28;20485;-46
2024/03/14 13:58:57;;;;;;;259.30;118.87;;;;;;;;;;5012035;28;20871;-45
2024/03/14 14:01:24;;;;;;;258.67;121.50;;;;;;;;;;5012169;28;20493;-45
2024/03/14 14:03:52;;;;;;;260.40;120.97;;;;;;;;;;5012125;28;20929;-46
2024/03/14 14:06:18;;;;;;;259.07;122.07;;;;;;;;;;5011825;28;20462;-45
2024/03/14 14:08:44;;;;;;;259.10;123.60;;;;;;;;;;5012098;28;21045;-45